createdAt,value
2022-12-19T00:01:58.075Z,5.73
2022-12-19T00:04:25.738Z,4.77
2022-12-19T00:07:12.013Z,5.63
2022-12-19T00:09:39.690Z,6.23
2022-12-19T00:12:07.296Z,6.10
2022-12-19T00:14:36.260Z,5.23
2022-12-19T00:17:05.150Z,5.13
2022-12-19T00:19:32.788Z,5.57
2022-12-19T00:22:00.378Z,5.73
2022-12-19T00:24:27.951Z,5.10
2022-12-19T00:26:55.540Z,6.07
2022-12-19T00:29:24.074Z,6.93
2022-12-19T00:31:52.928Z,5.93
2022-12-19T00:34:21.866Z,6.00
2022-12-19T00:36:49.463Z,5.87
2022-12-19T00:39:17.405Z,6.53
2022-12-19T00:41:46.730Z,4.53
2022-12-19T00:44:14.847Z,5.23
2022-12-19T00:46:42.737Z,5.17
2022-12-19T00:49:15.251Z,5.63
2022-12-19T00:51:44.281Z,6.47
2022-12-19T00:54:11.909Z,5.47
2022-12-19T00:56:40.151Z,6.90
2022-12-19T00:59:07.867Z,7.20
2022-12-19T01:01:36.759Z,5.47
2022-12-19T01:04:27.842Z,5.63
2022-12-19T01:06:54.343Z,6.40
2022-12-19T01:09:25.757Z,5.33
2022-12-19T01:12:04.420Z,5.77
2022-12-19T01:14:32.071Z,5.93
2022-12-19T01:16:59.665Z,6.57
2022-12-19T01:19:27.603Z,6.93
2022-12-19T01:21:56.545Z,5.63
2022-12-19T01:24:24.650Z,6.00
2022-12-19T01:26:52.247Z,6.33
2022-12-19T01:29:20.101Z,5.77
2022-12-19T01:31:48.772Z,3.87
2022-12-19T01:34:16.529Z,4.53
2022-12-19T01:36:44.206Z,5.77
2022-12-19T01:39:13.075Z,5.73
2022-12-19T01:41:40.800Z,6.30
2022-12-19T01:44:09.479Z,7.27
2022-12-19T01:46:39.286Z,5.73
2022-12-19T01:49:08.468Z,6.50
2022-12-19T01:51:39.877Z,5.63
2022-12-19T01:54:08.673Z,6.30
2022-12-19T01:56:39.918Z,5.73
2022-12-19T01:59:09.060Z,5.20
2022-12-19T02:01:41.478Z,5.30
2022-12-19T02:04:19.921Z,5.83
2022-12-19T02:06:47.876Z,6.83
2022-12-19T02:09:15.604Z,6.23
2022-12-19T02:11:44.578Z,7.07
2022-12-19T02:14:12.879Z,5.60
2022-12-19T02:16:46.787Z,5.80
2022-12-19T02:19:27.508Z,6.53
2022-12-19T02:21:58.244Z,8.33
2022-12-19T02:24:38.666Z,7.93
2022-12-19T02:27:18.655Z,6.77
2022-12-19T02:29:57.249Z,6.37
2022-12-19T02:32:31.668Z,7.43
2022-12-19T02:35:06.826Z,8.33
2022-12-19T02:37:36.287Z,7.73
2022-12-19T02:40:10.370Z,7.97
2022-12-19T02:42:40.028Z,8.53
2022-12-19T02:45:09.042Z,7.10
2022-12-19T02:47:38.728Z,7.47
2022-12-19T02:50:08.025Z,8.70
2022-12-19T02:52:46.861Z,9.13
2022-12-19T02:55:15.953Z,8.67
2022-12-19T02:57:49.286Z,6.87
2022-12-19T03:00:36.716Z,7.23
2022-12-19T03:03:11.010Z,7.00
2022-12-19T03:05:42.440Z,6.20
2022-12-19T03:08:15.000Z,5.90
2022-12-19T03:10:44.695Z,6.80
2022-12-19T03:13:14.512Z,6.40
2022-12-19T03:15:42.519Z,6.40
2022-12-19T03:18:11.729Z,5.97
2022-12-19T03:20:43.911Z,6.27
2022-12-19T03:23:11.552Z,5.77
2022-12-19T03:25:39.580Z,6.73
2022-12-19T03:28:10.994Z,5.83
2022-12-19T03:30:40.765Z,4.33
2022-12-19T03:33:10.880Z,5.90
2022-12-19T03:35:40.571Z,5.87
2022-12-19T03:38:08.817Z,6.97
2022-12-19T03:40:36.733Z,6.80
2022-12-19T03:43:12.732Z,6.07
2022-12-19T03:45:45.463Z,5.53
2022-12-19T03:48:16.896Z,5.40
2022-12-19T03:50:49.396Z,5.50
2022-12-19T03:53:24.322Z,5.37
2022-12-19T03:55:55.536Z,6.03
2022-12-19T03:58:27.403Z,6.77
2022-12-19T04:00:55.664Z,5.43
2022-12-19T04:03:24.191Z,5.87
2022-12-19T04:05:54.176Z,5.93
2022-12-19T04:08:22.156Z,5.30
2022-12-19T04:10:52.147Z,5.87
2022-12-19T04:13:21.170Z,4.80
2022-12-19T04:16:09.962Z,5.97
2022-12-19T04:18:38.240Z,5.77
2022-12-19T04:21:09.806Z,4.87
2022-12-19T04:23:39.302Z,4.80
2022-12-19T04:26:08.639Z,3.73
2022-12-19T04:28:46.452Z,4.17
2022-12-19T04:31:15.065Z,4.57
2022-12-19T04:33:42.710Z,4.97
2022-12-19T04:36:12.017Z,3.70
2022-12-19T04:38:39.784Z,4.33
2022-12-19T04:41:07.450Z,4.27
2022-12-19T04:43:35.119Z,4.73
2022-12-19T04:46:02.897Z,4.33
2022-12-19T04:48:30.846Z,4.57
2022-12-19T04:50:58.460Z,3.30
2022-12-19T04:53:27.403Z,3.63
2022-12-19T04:56:01.047Z,3.50
2022-12-19T04:58:29.129Z,5.00
2022-12-19T05:01:00.829Z,4.87
2022-12-19T05:03:28.426Z,4.73
2022-12-19T05:06:03.585Z,5.00
2022-12-19T05:08:32.497Z,6.03
2022-12-19T05:11:00.469Z,5.73
2022-12-19T05:13:28.364Z,5.47
2022-12-19T05:15:56.939Z,6.70
2022-12-19T05:18:24.914Z,5.83
2022-12-19T05:20:52.480Z,5.67
2022-12-19T05:23:20.200Z,5.37
2022-12-19T05:25:49.184Z,7.67
2022-12-19T05:28:16.879Z,6.07
2022-12-19T05:30:50.598Z,7.43
2022-12-19T05:33:19.804Z,6.33
2022-12-19T05:35:49.320Z,4.73
2022-12-19T05:38:16.942Z,4.67
2022-12-19T05:40:44.628Z,5.23
2022-12-19T05:43:13.558Z,5.07
2022-12-19T05:45:41.356Z,5.17
2022-12-19T05:48:08.972Z,5.57
2022-12-19T05:50:37.468Z,5.57
2022-12-19T05:53:10.136Z,4.20
2022-12-19T05:55:37.732Z,5.33
2022-12-19T05:58:05.291Z,3.77
2022-12-19T06:00:34.123Z,4.70
2022-12-19T06:03:20.555Z,4.77
2022-12-19T06:05:48.232Z,4.87
2022-12-19T06:08:15.836Z,5.23
2022-12-19T06:10:43.468Z,5.30
2022-12-19T06:13:11.072Z,4.77
2022-12-19T06:15:39.948Z,6.20
2022-12-19T06:18:07.879Z,5.47
2022-12-19T06:20:35.484Z,6.23
2022-12-19T06:23:03.143Z,6.67
2022-12-19T06:25:30.725Z,6.20
2022-12-19T06:27:58.312Z,6.00
2022-12-19T06:30:25.896Z,4.70
2022-12-19T06:32:54.775Z,4.97
2022-12-19T06:35:22.502Z,4.10
2022-12-19T06:37:50.708Z,4.90
2022-12-19T06:40:38.236Z,3.60
2022-12-19T06:43:05.065Z,4.07
2022-12-19T06:45:32.789Z,3.43
2022-12-19T06:48:01.776Z,4.40
2022-12-19T06:50:29.395Z,4.13
2022-12-19T06:52:57.267Z,4.03
2022-12-19T06:55:25.017Z,3.13
2022-12-19T06:57:52.611Z,3.83
2022-12-19T07:00:21.774Z,4.77
2022-12-19T07:02:50.761Z,4.60
2022-12-19T07:05:19.977Z,4.03
2022-12-19T07:07:47.754Z,3.67
2022-12-19T07:10:15.674Z,3.57
2022-12-19T07:12:43.582Z,5.13
2022-12-19T07:15:12.052Z,5.67
2022-12-19T07:17:39.801Z,5.10
2022-12-19T07:20:07.771Z,5.70
2022-12-19T07:22:37.325Z,5.63
2022-12-19T07:25:05.938Z,5.57
2022-12-19T07:27:35.903Z,5.47
2022-12-19T07:30:04.521Z,5.10
2022-12-19T07:32:32.098Z,4.70
2022-12-19T07:34:59.743Z,4.07
2022-12-19T07:37:27.387Z,4.73
2022-12-19T07:39:56.365Z,5.17
2022-12-19T07:42:26.054Z,4.77
2022-12-19T07:44:57.009Z,5.33
2022-12-19T07:47:27.409Z,6.20
2022-12-19T07:49:55.135Z,5.70
2022-12-19T07:52:22.727Z,5.77
2022-12-19T07:54:50.339Z,5.60
2022-12-19T07:57:19.286Z,5.37
2022-12-19T07:59:46.996Z,6.57
2022-12-19T08:02:15.039Z,6.77
2022-12-19T08:04:42.735Z,5.67
2022-12-19T08:07:10.608Z,7.27
2022-12-19T08:09:56.979Z,6.30
2022-12-19T08:12:26.954Z,6.50
2022-12-19T08:14:57.291Z,6.07
2022-12-19T08:17:26.163Z,5.73
2022-12-19T08:19:53.845Z,6.03
2022-12-19T08:22:21.592Z,4.73
2022-12-19T08:24:49.188Z,4.47
2022-12-19T08:27:17.505Z,4.67
2022-12-19T08:29:47.358Z,4.87
2022-12-19T08:32:20.524Z,4.97
2022-12-19T08:34:49.226Z,4.43
2022-12-19T08:37:17.156Z,4.07
2022-12-19T08:39:44.865Z,5.37
2022-12-19T08:42:12.495Z,3.47
2022-12-19T08:44:40.160Z,4.43
2022-12-19T08:47:09.496Z,4.53
2022-12-19T08:49:37.175Z,4.33
2022-12-19T08:52:04.871Z,4.97
2022-12-19T08:54:32.593Z,4.97
2022-12-19T08:57:00.263Z,5.80
2022-12-19T08:59:31.123Z,6.27
2022-12-19T09:02:00.436Z,5.40
2022-12-19T09:06:01.675Z,5.00
2022-12-19T09:07:17.659Z,5.60
2022-12-19T09:09:45.713Z,5.03
2022-12-19T09:12:13.396Z,4.00
2022-12-19T09:14:41.011Z,4.20
2022-12-19T09:17:08.824Z,4.53
2022-12-19T09:19:37.892Z,3.90
2022-12-19T09:22:06.645Z,3.90
2022-12-19T09:24:34.250Z,4.47
2022-12-19T09:27:01.826Z,4.50
2022-12-19T09:29:33.647Z,4.40
2022-12-19T09:32:03.128Z,4.23
2022-12-19T09:34:38.095Z,5.17
2022-12-19T09:37:08.443Z,5.60
2022-12-19T09:39:36.631Z,4.97
2022-12-19T09:42:13.351Z,5.60
2022-12-19T09:44:50.690Z,5.67
2022-12-19T09:47:19.215Z,5.07
2022-12-19T09:49:47.838Z,5.03
2022-12-19T09:52:18.566Z,6.07
2022-12-19T09:54:48.285Z,5.47
2022-12-19T09:57:18.521Z,5.37
2022-12-19T09:59:50.284Z,5.07
2022-12-19T10:02:25.222Z,5.43
2022-12-19T10:04:56.414Z,5.17
2022-12-19T10:08:01.811Z,4.17
2022-12-19T10:12:36.097Z,5.20
2022-12-19T10:13:25.817Z,5.20
2022-12-19T10:16:00.205Z,4.33
2022-12-19T10:18:36.138Z,4.63
2022-12-19T10:21:06.814Z,3.83
2022-12-19T10:23:43.230Z,4.10
2022-12-19T10:26:15.054Z,3.70
2022-12-19T10:28:50.542Z,4.20
2022-12-19T10:31:22.052Z,3.77
2022-12-19T10:33:52.100Z,3.63
2022-12-19T10:36:19.848Z,4.17
2022-12-19T10:38:54.180Z,3.97
2022-12-19T10:41:22.890Z,4.47
2022-12-19T10:43:55.151Z,4.73
2022-12-19T10:46:37.227Z,4.27
2022-12-19T10:49:10.876Z,4.57
2022-12-19T10:51:38.537Z,4.13
2022-12-19T10:54:07.859Z,5.20
2022-12-19T10:56:37.960Z,4.90
2022-12-19T10:59:16.363Z,6.00
2022-12-19T11:01:44.575Z,5.17
2022-12-19T11:04:15.318Z,5.27
2022-12-19T11:06:46.344Z,5.17
2022-12-19T11:09:20.401Z,5.70
2022-12-19T11:14:40.634Z,4.70
2022-12-19T11:18:54.681Z,5.60
2022-12-19T11:27:56.487Z,4.67
2022-12-19T11:29:32.232Z,5.30
2022-12-19T11:29:39.640Z,4.63
2022-12-19T11:30:45.504Z,4.97
2022-12-19T11:30:48.173Z,4.57
2022-12-19T11:34:21.299Z,4.77
2022-12-19T11:36:50.630Z,5.07
2022-12-19T11:39:21.191Z,5.60
2022-12-19T11:41:56.649Z,5.50
2022-12-19T11:44:28.707Z,5.87
2022-12-19T11:47:00.398Z,5.17
2022-12-19T11:49:31.238Z,5.57
2022-12-19T11:52:03.707Z,6.20
2022-12-19T11:54:33.909Z,5.40
2022-12-19T11:57:02.826Z,5.10
2022-12-19T11:59:49.285Z,5.00
2022-12-19T12:02:24.844Z,5.17
2022-12-19T12:05:06.247Z,4.73
2022-12-19T12:07:55.397Z,5.27
2022-12-19T12:13:54.267Z,4.60
2022-12-19T12:23:31.069Z,4.33
2022-12-19T12:29:14.518Z,4.80
2022-12-19T12:31:20.142Z,4.90
2022-12-19T12:31:23.833Z,4.30
2022-12-19T12:31:42.135Z,3.97
2022-12-19T12:31:52.362Z,4.20
2022-12-19T12:31:58.263Z,4.30
2022-12-19T12:35:56.814Z,5.20
2022-12-19T12:38:10.873Z,3.90
2022-12-19T12:39:33.600Z,5.07
2022-12-19T12:42:08.922Z,4.30
2022-12-19T12:44:43.112Z,4.17
2022-12-19T12:47:16.456Z,4.60
2022-12-19T12:49:45.913Z,4.10
2022-12-19T12:52:15.971Z,4.50
2022-12-19T12:54:47.303Z,3.70
2022-12-19T12:57:19.178Z,4.67
2022-12-19T12:59:48.155Z,3.40
2022-12-19T13:02:19.027Z,4.37
2022-12-19T13:04:56.610Z,4.13
2022-12-19T13:07:29.288Z,4.13
2022-12-19T13:10:16.079Z,5.07
2022-12-19T13:13:00.674Z,3.83
2022-12-19T13:15:36.996Z,5.33
2022-12-19T13:18:14.500Z,4.27
2022-12-19T13:20:46.328Z,4.67
2022-12-19T13:23:22.809Z,4.40
2022-12-19T13:25:52.883Z,4.00
2022-12-19T13:28:32.689Z,3.67
2022-12-19T13:31:21.329Z,3.73
2022-12-19T13:34:00.784Z,3.80
2022-12-19T13:39:51.442Z,4.80
2022-12-19T13:40:02.473Z,3.90
2022-12-19T13:42:32.700Z,4.80
2022-12-19T13:45:06.119Z,4.77
2022-12-19T13:47:34.829Z,3.97
2022-12-19T13:50:06.683Z,4.03
2022-12-19T13:52:34.306Z,4.47
2022-12-19T13:55:03.333Z,3.90
2022-12-19T13:57:31.612Z,4.20
2022-12-19T14:00:01.569Z,4.73
2022-12-19T14:02:43.893Z,4.10
2022-12-19T14:05:29.452Z,3.63
2022-12-19T14:08:08.652Z,3.43
2022-12-19T14:11:39.296Z,3.80
2022-12-19T14:13:55.698Z,4.00
2022-12-19T14:16:43.508Z,3.50
2022-12-19T14:19:20.774Z,4.23
2022-12-19T14:22:06.736Z,4.70
2022-12-19T14:24:36.124Z,4.63
2022-12-19T14:28:24.463Z,4.23
2022-12-19T14:30:30.680Z,3.87
2022-12-19T14:33:39.595Z,3.77
2022-12-19T14:36:06.397Z,4.47
2022-12-19T14:39:25.720Z,4.37
2022-12-19T14:41:39.084Z,4.00
2022-12-19T14:51:25.229Z,4.50
2022-12-19T14:53:51.271Z,4.33
2022-12-19T14:54:03.655Z,4.00
2022-12-19T14:54:26.787Z,3.70
2022-12-19T14:56:08.863Z,3.87
2022-12-19T14:58:52.225Z,3.50
2022-12-19T15:01:23.356Z,3.10
2022-12-19T15:04:53.510Z,3.10
2022-12-19T15:07:06.672Z,3.07
2022-12-19T15:11:00.283Z,2.70
2022-12-19T15:13:46.742Z,3.30
2022-12-19T15:15:22.786Z,3.60
2022-12-19T15:17:54.450Z,3.53
2022-12-19T15:20:22.601Z,3.57
2022-12-19T15:22:50.211Z,3.80
2022-12-19T15:25:52.645Z,3.97
2022-12-19T15:28:11.290Z,3.47
2022-12-19T15:30:40.423Z,3.33
2022-12-19T15:33:12.937Z,2.97
2022-12-19T15:35:40.599Z,3.27
2022-12-19T15:38:08.260Z,2.53
2022-12-19T15:40:35.950Z,2.90
2022-12-19T15:43:04.305Z,3.60
2022-12-19T15:45:32.622Z,4.30
2022-12-19T15:48:00.373Z,3.80
2022-12-19T15:50:32.044Z,3.90
2022-12-19T15:53:00.278Z,3.67
2022-12-19T15:55:29.388Z,3.23
2022-12-19T15:57:58.533Z,3.33
2022-12-19T16:00:28.344Z,3.03
2022-12-19T16:03:24.564Z,3.13
2022-12-19T16:05:54.723Z,3.33
2022-12-19T16:08:25.244Z,3.20
2022-12-19T16:10:59.371Z,3.50
2022-12-19T16:13:30.243Z,3.57
2022-12-19T16:15:58.673Z,2.97
2022-12-19T16:18:26.569Z,2.53
2022-12-19T16:20:56.900Z,3.07
2022-12-19T16:23:25.324Z,2.53
2022-12-19T16:25:53.571Z,3.37
2022-12-19T16:28:25.352Z,3.23
2022-12-19T16:30:53.500Z,3.20
2022-12-19T16:33:22.085Z,4.30
2022-12-19T16:36:06.879Z,3.73
2022-12-19T16:38:36.530Z,3.67
2022-12-19T16:41:04.248Z,3.63
2022-12-19T16:43:33.006Z,3.63
2022-12-19T16:46:01.697Z,3.10
2022-12-19T16:48:30.460Z,3.17
2022-12-19T16:50:58.946Z,3.10
2022-12-19T16:53:26.690Z,2.77
2022-12-19T16:55:56.369Z,3.40
2022-12-19T16:58:25.914Z,3.73
2022-12-19T17:00:54.780Z,3.37
2022-12-19T17:03:27.479Z,3.33
2022-12-19T17:05:55.668Z,3.17
2022-12-19T17:08:23.813Z,3.30
2022-12-19T17:10:51.618Z,3.20
2022-12-19T17:13:21.254Z,2.73
2022-12-19T17:15:54.500Z,3.30
2022-12-19T17:18:27.556Z,3.23
2022-12-19T17:20:55.238Z,3.10
2022-12-19T17:23:23.841Z,3.90
2022-12-19T17:25:52.742Z,3.13
2022-12-19T17:28:21.706Z,3.23
2022-12-19T17:30:50.742Z,3.07
2022-12-19T17:33:19.285Z,3.13
2022-12-19T17:35:47.312Z,3.77
2022-12-19T17:38:15.679Z,2.87
2022-12-19T17:40:43.955Z,2.60
2022-12-19T17:43:12.621Z,2.93
2022-12-19T17:45:41.948Z,3.27
2022-12-19T17:48:16.604Z,3.00
2022-12-19T17:50:44.281Z,3.60
2022-12-19T17:53:13.523Z,4.10
2022-12-19T17:55:41.365Z,2.90
2022-12-19T17:58:09.661Z,4.37
2022-12-19T18:00:38.042Z,3.17
2022-12-19T18:03:21.576Z,4.40
2022-12-19T18:05:49.897Z,3.53
2022-12-19T18:08:22.940Z,3.13
2022-12-19T18:10:52.425Z,2.77
2022-12-19T18:13:20.321Z,2.93
2022-12-19T18:15:48.029Z,3.47
2022-12-19T18:18:23.660Z,2.47
2022-12-19T18:20:51.583Z,3.67
2022-12-19T18:23:20.668Z,3.57
2022-12-19T18:25:48.772Z,2.83
2022-12-19T18:28:17.009Z,2.70
2022-12-19T18:30:45.209Z,3.40
2022-12-19T18:33:15.993Z,3.80
2022-12-19T18:35:47.362Z,3.33
2022-12-19T18:38:16.203Z,3.20
2022-12-19T18:40:43.834Z,3.20
2022-12-19T18:43:12.825Z,3.50
2022-12-19T18:45:42.344Z,2.80
2022-12-19T18:48:13.997Z,3.40
2022-12-19T18:50:41.668Z,3.53
2022-12-19T18:53:12.633Z,3.30
2022-12-19T18:55:40.369Z,4.07
2022-12-19T18:58:08.132Z,4.63
2022-12-19T19:00:36.512Z,3.53
2022-12-19T19:03:05.385Z,4.20
2022-12-19T19:05:35.136Z,4.53
2022-12-19T19:08:06.481Z,3.27
2022-12-19T19:10:35.390Z,3.70
2022-12-19T19:13:10.403Z,2.80
2022-12-19T19:15:40.336Z,3.60
2022-12-19T19:18:08.699Z,2.77
2022-12-19T19:20:37.485Z,3.33
2022-12-19T19:23:05.778Z,3.20
2022-12-19T19:25:34.657Z,3.37
2022-12-19T19:28:02.395Z,3.73
2022-12-19T19:30:30.223Z,3.50
2022-12-19T19:32:59.530Z,3.60
2022-12-19T19:35:28.608Z,4.03
2022-12-19T19:37:57.672Z,4.00
2022-12-19T19:40:25.294Z,3.67
2022-12-19T19:42:54.247Z,3.90
2022-12-19T19:45:23.326Z,3.87
2022-12-19T19:47:51.015Z,3.73
2022-12-19T19:50:18.909Z,3.77
2022-12-19T19:52:46.525Z,3.77
2022-12-19T19:55:14.539Z,4.67
2022-12-19T19:57:42.222Z,3.70
2022-12-19T20:00:11.659Z,3.17
2022-12-19T20:02:40.554Z,3.23
2022-12-19T20:05:08.830Z,4.70
2022-12-19T20:07:36.447Z,3.83
2022-12-19T20:10:04.681Z,3.13
2022-12-19T20:12:32.418Z,3.93
2022-12-19T20:15:00.029Z,4.33
2022-12-19T20:17:29.030Z,4.50
2022-12-19T20:19:56.597Z,4.07
2022-12-19T20:22:24.249Z,4.87
2022-12-19T20:24:51.945Z,4.10
2022-12-19T20:27:19.570Z,5.03
2022-12-19T20:29:47.207Z,3.97
2022-12-19T20:32:15.440Z,4.53
2022-12-19T20:34:44.424Z,3.77
2022-12-19T20:37:12.069Z,5.03
2022-12-19T20:39:39.710Z,4.23
2022-12-19T20:42:24.934Z,3.80
2022-12-19T20:44:52.956Z,4.00
2022-12-19T20:47:20.624Z,3.87
2022-12-19T20:49:49.612Z,4.00
2022-12-19T20:52:17.443Z,3.60
2022-12-19T20:54:45.144Z,3.80
2022-12-19T20:57:12.955Z,3.63
2022-12-19T20:59:40.692Z,4.03
2022-12-19T21:02:08.460Z,4.20
2022-12-19T21:04:36.419Z,3.73
2022-12-19T21:07:05.461Z,4.07
2022-12-19T21:09:33.079Z,4.47
2022-12-19T21:12:00.758Z,3.70
2022-12-19T21:14:28.418Z,4.30
2022-12-19T21:16:56.021Z,4.70
2022-12-19T21:19:23.632Z,4.40
2022-12-19T21:21:51.290Z,4.87
2022-12-19T21:24:20.446Z,3.53
2022-12-19T21:26:57.526Z,4.17
2022-12-19T21:29:25.720Z,3.53
2022-12-19T21:31:53.382Z,3.37
2022-12-19T21:34:21.111Z,3.73
2022-12-19T21:36:48.730Z,4.23
2022-12-19T21:39:16.399Z,3.07
2022-12-19T21:41:45.626Z,3.20
2022-12-19T21:44:13.264Z,3.90
2022-12-19T21:46:40.933Z,3.70
2022-12-19T21:49:09.357Z,3.50
2022-12-19T21:51:36.982Z,3.83
2022-12-19T21:54:05.982Z,3.43
2022-12-19T21:56:35.271Z,4.27
2022-12-19T21:59:05.055Z,3.47
2022-12-19T22:01:33.031Z,4.30
2022-12-19T22:04:01.652Z,4.00
2022-12-19T22:06:29.980Z,3.57
2022-12-19T22:08:57.721Z,4.20
2022-12-19T22:11:25.947Z,3.67
2022-12-19T22:13:53.632Z,4.53
2022-12-19T22:16:22.687Z,4.53
2022-12-19T22:18:51.280Z,3.93
2022-12-19T22:21:19.631Z,4.03
2022-12-19T22:23:47.247Z,3.30
2022-12-19T22:26:16.180Z,4.13
2022-12-19T22:28:45.752Z,3.20
2022-12-19T22:31:18.157Z,2.87
2022-12-19T22:33:47.851Z,3.60
2022-12-19T22:36:16.826Z,3.30
2022-12-19T22:38:48.095Z,3.10
2022-12-19T22:41:16.670Z,4.10
2022-12-19T22:43:44.676Z,2.97
2022-12-19T22:46:12.751Z,3.60
2022-12-19T22:48:40.659Z,3.30
2022-12-19T22:51:09.917Z,3.70
2022-12-19T22:53:38.149Z,4.17
2022-12-19T22:56:07.352Z,4.20
2022-12-19T22:58:36.307Z,3.50
2022-12-19T23:01:04.063Z,3.63
2022-12-19T23:03:32.084Z,3.83
2022-12-19T23:06:02.132Z,3.53
2022-12-19T23:08:31.026Z,4.23
2022-12-19T23:10:58.752Z,3.83
2022-12-19T23:13:26.468Z,4.37
2022-12-19T23:15:54.288Z,4.03
2022-12-19T23:18:21.873Z,4.20
2022-12-19T23:20:49.518Z,4.20
2022-12-19T23:23:17.108Z,4.00
2022-12-19T23:26:07.304Z,3.60
2022-12-19T23:28:38.924Z,3.93
2022-12-19T23:31:07.107Z,3.93
2022-12-19T23:33:35.691Z,4.60
2022-12-19T23:36:03.510Z,3.40
2022-12-19T23:38:31.212Z,4.33
2022-12-19T23:41:00.259Z,3.53
2022-12-19T23:43:29.865Z,3.20
2022-12-19T23:45:57.775Z,4.60
2022-12-19T23:48:26.029Z,3.90
2022-12-19T23:51:01.373Z,3.67
2022-12-19T23:53:29.258Z,3.30
2022-12-19T23:55:56.894Z,4.10
2022-12-19T23:58:25.135Z,3.80
